Time;durP1;ratioP1;P1;durP2;ratioP2;P2;SDS_P1;SDS_P2;PMS_P1;PMS_P2;Temp;Humidity;BMP_temperature;BMP_pressure;BME280_temperature;BME280_humidity;BME280_pressure;Samples;Min_cycle;Max_cycle;Signal;HPM_P1;HPM_P2
2023/06/21 00:00:12;;;;;;;2.40;1.40;;;23.30;98.40;;;23.91;96.57;100641.03;5183114;28;20124;-70
2023/06/21 00:02:44;;;;;;;2.63;1.65;;;23.30;98.70;;;23.88;97.04;100634.91;5181838;28;20042;-70
2023/06/21 00:05:18;;;;;;;2.28;1.48;;;23.30;99.00;;;23.84;97.63;100634.09;5151938;28;20053;-70
2023/06/21 00:07:52;;;;;;;2.40;1.52;;;23.20;99.20;;;23.80;98.11;100635.09;5168765;28;20046;-71
2023/06/21 00:10:28;;;;;;;1.83;1.35;;;23.20;99.50;;;23.74;98.03;100635.22;5148278;28;20384;-70
2023/06/21 00:13:01;;;;;;;2.55;1.73;;;23.20;99.80;;;23.68;98.81;100628.25;5161390;28;20054;-71
2023/06/21 00:15:33;;;;;;;2.25;1.60;;;23.10;99.90;;;23.63;99.15;100629.25;5161877;28;20046;-71
2023/06/21 00:18:05;;;;;;;2.00;1.50;;;23.00;99.90;;;23.57;99.85;100632.88;5162166;28;20046;-71
2023/06/21 00:20:38;;;;;;;2.08;1.33;;;23.00;99.90;;;23.55;100.00;100632.91;5163537;28;20042;-71
2023/06/21 00:23:12;;;;;;;2.38;1.60;;;23.00;99.90;;;23.55;100.00;100626.72;5165768;28;20112;-71
2023/06/21 00:25:44;;;;;;;3.00;1.65;;;22.90;99.90;;;23.53;100.00;100634.72;5183247;28;20042;-71
2023/06/21 00:28:16;;;;;;;2.10;1.45;;;22.90;99.90;;;23.53;100.00;100640.03;5182717;28;20499;-71
2023/06/21 00:30:48;;;;;;;1.55;1.27;;;23.00;99.90;;;23.52;100.00;100632.09;5165373;28;20522;-71
2023/06/21 00:33:21;;;;;;;2.10;1.55;;;22.90;99.90;;;23.52;100.00;100640.94;5140130;28;20062;-71
2023/06/21 00:35:54;;;;;;;2.45;1.48;;;22.90;99.90;;;23.50;100.00;100645.44;5167157;28;20411;-71
2023/06/21 00:38:27;;;;;;;3.50;1.80;;;22.90;99.90;;;23.41;100.00;100645.63;5157675;28;20069;-71
2023/06/21 00:40:59;;;;;;;2.80;1.73;;;22.90;99.90;;;23.34;100.00;100636.00;5151430;28;20526;-71
2023/06/21 00:43:31;;;;;;;2.60;1.92;;;22.80;99.90;;;23.29;100.00;100640.56;5152419;28;20052;-71
2023/06/21 00:46:04;;;;;;;2.53;1.45;;;22.70;99.90;;;23.24;100.00;100642.41;5164201;28;20132;-70
2023/06/21 00:48:36;;;;;;;2.08;1.50;;;22.70;99.90;;;23.17;100.00;100649.63;5175751;28;20045;-71
2023/06/21 00:51:13;;;;;;;2.80;1.52;;;22.60;99.90;;;23.10;100.00;100650.66;5171212;28;20042;-71
2023/06/21 00:53:46;;;;;;;1.70;1.35;;;22.60;99.90;;;23.06;100.00;100653.41;5153335;28;20042;-71
2023/06/21 00:56:23;;;;;;;2.97;1.60;;;22.50;99.90;;;23.00;100.00;100665.91;5166960;28;20106;-71
2023/06/21 00:58:56;;;;;;;2.03;1.60;;;22.50;99.90;;;22.94;100.00;100671.31;5145692;28;20478;-71
2023/06/21 01:01:28;;;;;;;2.15;1.45;;;22.40;99.90;;;22.89;100.00;100673.22;5161933;28;20403;-70
2023/06/21 01:04:01;;;;;;;2.38;1.45;;;22.30;99.90;;;22.84;100.00;100675.03;5143595;28;20050;-71
2023/06/21 01:06:46;;;;;;;2.55;1.80;;;22.30;99.90;;;22.76;100.00;100682.25;5152498;28;21127;-71
2023/06/21 01:09:29;;;;;;;2.17;1.80;;;22.20;99.90;;;22.72;100.00;100685.88;5178020;28;20050;-71
2023/06/21 01:12:09;;;;;;;2.67;2.08;;;22.20;99.90;;;22.68;100.00;100700.97;5173192;28;20081;-71
2023/06/21 01:14:51;;;;;;;1.90;1.52;;;22.10;99.90;;;22.65;100.00;100711.66;5165075;28;20058;-71
2023/06/21 01:17:25;;;;;;;2.53;1.80;;;22.10;99.90;;;22.63;100.00;100717.91;5164666;28;20046;-70
2023/06/21 01:19:58;;;;;;;;;;;22.10;99.90;;;22.62;100.00;100716.13;5153352;28;20039;-71
2023/06/21 01:22:46;;;;;;;2.67;1.95;;;22.00;99.90;;;22.60;100.00;100712.63;5171189;28;19929;-71
2023/06/21 01:25:31;;;;;;;3.35;2.00;;;22.10;99.90;;;22.55;100.00;100711.81;5185323;28;20050;-71
2023/06/21 01:28:23;;;;;;;3.17;1.83;;;22.00;99.90;;;22.55;100.00;100719.78;5153285;28;20519;-71
2023/06/21 01:30:59;;;;;;;2.47;1.70;;;22.00;99.90;;;22.57;100.00;100728.63;5150776;28;20726;-71
2023/06/21 01:33:33;;;;;;;2.58;1.52;;;22.00;99.90;;;22.55;100.00;100725.09;5185292;28;20402;-71
2023/06/21 01:36:07;;;;;;;4.72;2.40;;;22.00;99.90;;;22.51;100.00;100734.03;5168565;28;20462;-71
2023/06/21 01:38:39;;;;;;;2.58;2.08;;;22.00;99.90;;;22.48;100.00;100733.16;5168569;28;20058;-71
2023/06/21 01:41:15;;;;;;;4.25;2.08;;;22.00;99.90;;;22.48;100.00;100730.50;5176295;28;20050;-70
2023/06/21 01:43:47;;;;;;;3.45;2.08;;;22.00;99.90;;;22.44;100.00;100728.81;5165319;28;20112;-70
2023/06/21 01:46:23;;;;;;;3.03;2.00;;;22.00;99.90;;;22.42;100.00;100740.34;5152229;28;20041;-70
2023/06/21 01:48:58;;;;;;;2.97;2.05;;;21.90;99.90;;;22.38;100.00;100738.66;5184690;28;20050;-71
2023/06/21 01:51:31;;;;;;;3.45;2.55;;;21.80;99.90;;;22.32;100.00;100733.44;5183904;28;20128;-71
2023/06/21 01:54:03;;;;;;;2.90;1.92;;;21.80;99.90;;;22.31;100.00;100736.97;5184595;28;20048;-70
2023/06/21 01:56:38;;;;;;;2.65;2.22;;;21.80;99.90;;;22.28;100.00;100735.22;5168181;28;20042;-70
2023/06/21 01:59:11;;;;;;;3.08;1.88;;;21.80;99.90;;;22.28;100.00;100737.88;5184514;28;20046;-71
2023/06/21 02:01:50;;;;;;;3.38;2.30;;;21.80;99.90;;;22.25;100.00;100726.44;5151178;28;20050;-71
2023/06/21 02:04:23;;;;;;;3.88;2.40;;;21.70;99.90;;;22.22;100.00;100735.31;5152147;28;20049;-71
2023/06/21 02:06:55;;;;;;;2.63;1.73;;;21.70;99.90;;;22.18;100.00;100736.28;5185425;28;20048;-70
2023/06/21 02:09:28;;;;;;;3.30;2.13;;;21.70;99.90;;;22.13;100.00;100722.19;5167885;28;20049;-71
2023/06/21 02:12:01;;;;;;;3.45;2.08;;;21.60;99.90;;;22.09;100.00;100725.75;5185948;28;20053;-71
2023/06/21 02:14:34;;;;;;;2.13;1.80;;;21.60;99.90;;;22.08;100.00;100729.28;5167819;28;20045;-71
2023/06/21 02:17:09;;;;;;;3.17;1.73;;;21.60;99.90;;;22.07;100.00;100730.19;5151569;28;20590;-70
2023/06/21 02:19:45;;;;;;;2.78;1.77;;;21.50;99.90;;;22.05;100.00;100729.34;5184100;28;20049;-71
2023/06/21 02:22:19;;;;;;;2.45;1.98;;;21.50;99.90;;;22.02;100.00;100734.69;5177314;28;20112;-71
2023/06/21 02:24:51;;;;;;;3.80;1.95;;;21.50;99.90;;;22.00;100.00;100729.41;5183719;28;20056;-71
2023/06/21 02:27:24;;;;;;;3.17;2.00;;;21.40;99.90;;;21.97;100.00;100736.50;5183914;28;20049;-71
2023/06/21 02:29:56;;;;;;;3.65;2.05;;;21.50;99.90;;;21.92;100.00;100744.53;5133030;28;20061;-70
2023/06/21 02:32:30;;;;;;;3.55;2.20;;;21.40;99.90;;;21.89;100.00;100740.13;5184949;28;20048;-71
2023/06/21 02:35:02;;;;;;;3.85;2.58;;;21.40;99.90;;;21.87;100.00;100743.72;5151543;28;20474;-71
2023/06/21 02:37:35;;;;;;;2.65;2.28;;;21.40;99.90;;;21.84;100.00;100752.59;5183623;28;20049;-71
2023/06/21 02:40:11;;;;;;;2.42;1.90;;;21.40;99.90;;;21.83;100.00;100749.94;5175167;28;20050;-71
2023/06/21 02:42:43;;;;;;;3.00;1.85;;;21.30;99.90;;;21.81;100.00;100757.06;5184614;28;20065;-71
2023/06/21 02:45:17;;;;;;;3.17;2.00;;;21.30;99.90;;;21.77;100.00;100761.50;5175663;28;20525;-70
2023/06/21 02:47:51;;;;;;;3.40;2.03;;;21.30;99.90;;;21.77;100.00;100756.19;5167359;28;20081;-70
2023/06/21 02:50:23;;;;;;;3.35;2.22;;;21.30;99.90;;;21.77;100.00;100768.59;5150313;28;20046;-70
2023/06/21 02:52:56;;;;;;;3.83;2.35;;;21.30;99.90;;;21.72;100.00;100763.38;5184536;28;20122;-72
2023/06/21 02:55:29;;;;;;;4.20;2.40;;;21.20;99.90;;;21.69;100.00;100774.00;5184792;28;20411;-70
2023/06/21 02:58:01;;;;;;;4.15;2.67;;;21.20;99.90;;;21.63;100.00;100776.72;5183417;28;20050;-71
2023/06/21 03:00:33;;;;;;;5.40;2.80;;;21.20;99.90;;;21.58;100.00;100781.16;5182937;28;20046;-70
2023/06/21 03:03:09;;;;;;;4.05;2.45;;;21.10;99.90;;;21.55;100.00;100787.41;5183372;28;20046;-71
2023/06/21 03:05:42;;;;;;;;;;;21.10;99.90;;;21.54;100.00;100782.13;5135520;28;20521;-71
2023/06/21 03:08:18;;;;;;;4.50;2.70;;;21.10;99.90;;;21.55;100.00;100781.22;5147583;28;19928;-71
2023/06/21 03:10:50;;;;;;;6.07;2.67;;;21.10;99.90;;;21.56;100.00;100782.97;5163041;28;20061;-71
2023/06/21 03:13:23;;;;;;;4.18;2.63;;;21.10;99.90;;;21.55;100.00;100789.19;5183085;28;20077;-71
2023/06/21 03:15:56;;;;;;;5.85;2.88;;;21.10;99.90;;;21.56;100.00;100788.28;5182626;28;20050;-71
2023/06/21 03:18:30;;;;;;;5.15;2.83;;;21.10;99.90;;;21.55;100.00;100783.88;5183406;28;20042;-70
2023/06/21 03:21:02;;;;;;;4.18;2.88;;;21.00;99.90;;;21.56;100.00;100793.59;5182917;28;20054;-72
2023/06/21 03:23:36;;;;;;;4.80;3.15;;;21.10;99.90;;;21.55;100.00;100789.19;5147131;28;20058;-72
2023/06/21 03:26:09;;;;;;;4.45;2.40;;;21.10;99.90;;;21.56;100.00;100798.88;5119032;28;20046;-71
2023/06/21 03:28:41;;;;;;;4.93;2.78;;;21.10;99.90;;;21.56;100.00;100801.53;5150737;28;20053;-71
2023/06/21 03:31:15;;;;;;;4.28;2.40;;;21.10;99.90;;;21.57;100.00;100801.50;5182582;28;20614;-71
2023/06/21 03:33:49;;;;;;;4.75;2.83;;;21.00;99.90;;;21.59;100.00;100805.06;5150213;28;20049;-71
2023/06/21 03:36:22;;;;;;;4.30;2.95;;;21.10;99.90;;;21.59;100.00;100806.84;5175336;28;20132;-71
2023/06/21 03:38:54;;;;;;;4.57;2.88;;;21.10;99.90;;;21.58;100.00;100807.69;5166554;28;20041;-71
2023/06/21 03:41:27;;;;;;;3.92;2.45;;;21.10;99.90;;;21.58;100.00;100807.69;5182187;28;20496;-70
2023/06/21 03:44:00;;;;;;;5.90;2.95;;;21.10;99.90;;;21.60;100.00;100809.47;5166157;28;20503;-71
2023/06/21 03:46:33;;;;;;;4.18;2.72;;;21.10;99.90;;;21.62;100.00;100809.44;5182531;28;20105;-71
2023/06/21 03:49:07;;;;;;;5.15;2.67;;;21.10;99.90;;;21.64;100.00;100821.78;5182559;28;20050;-71
2023/06/21 03:51:40;;;;;;;4.97;2.55;;;21.10;99.90;;;21.67;100.00;100826.19;5182075;28;20111;-71
2023/06/21 03:54:12;;;;;;;3.33;2.22;;;21.20;99.90;;;21.70;100.00;100818.19;5165943;28;20053;-71
2023/06/21 03:56:46;;;;;;;4.38;2.80;;;21.20;99.90;;;21.75;100.00;100820.81;5183398;28;20057;-71
2023/06/21 03:59:18;;;;;;;4.57;2.50;;;21.30;99.90;;;21.79;100.00;100825.19;5166291;28;20052;-71
2023/06/21 04:01:51;;;;;;;3.25;2.28;;;21.20;99.90;;;21.80;100.00;100833.13;5183261;28;20049;-71
2023/06/21 04:04:26;;;;;;;5.30;2.85;;;21.30;99.90;;;21.87;100.00;100836.59;5158339;28;20049;-71
2023/06/21 04:06:58;;;;;;;4.78;2.58;;;21.30;99.90;;;21.91;100.00;100828.59;5165715;28;20042;-71
2023/06/21 04:09:30;;;;;;;4.45;2.95;;;21.40;99.90;;;21.95;100.00;100834.72;5183440;28;20038;-71
2023/06/21 04:12:03;;;;;;;5.10;3.00;;;21.40;99.90;;;21.93;100.00;100829.44;5149398;28;20064;-71
2023/06/21 04:14:36;;;;;;;5.68;2.90;;;21.50;99.90;;;21.93;100.00;100832.09;5183535;28;20045;-71
2023/06/21 04:17:08;;;;;;;3.45;2.42;;;21.50;99.90;;;21.92;100.00;100830.34;5165719;28;20045;-71
2023/06/21 04:19:42;;;;;;;4.03;2.80;;;21.50;99.90;;;21.95;100.00;100835.59;5183702;28;20518;-71
2023/06/21 04:22:14;;;;;;;5.28;2.85;;;21.50;99.90;;;21.95;100.00;100840.91;5165368;28;20120;-71
2023/06/21 04:24:47;;;;;;;4.97;2.95;;;21.50;99.90;;;21.98;100.00;100836.47;5150011;28;20046;-71
2023/06/21 04:27:22;;;;;;;6.20;3.00;;;21.50;99.90;;;22.01;100.00;100839.97;5167358;28;20129;-71
2023/06/21 04:29:55;;;;;;;5.20;2.70;;;21.50;99.90;;;22.04;100.00;100847.00;5169724;28;20511;-70
2023/06/21 04:32:31;;;;;;;3.55;2.50;;;21.60;99.90;;;22.08;100.00;100851.38;5187406;28;20049;-71
2023/06/21 04:35:07;;;;;;;4.57;2.90;;;21.60;99.90;;;22.12;100.00;100854.03;5169957;28;20124;-71
2023/06/21 04:37:45;;;;;;;3.70;2.50;;;21.70;99.90;;;22.13;100.00;100847.81;5187273;28;20044;-71
2023/06/21 04:40:19;;;;;;;4.32;2.60;;;21.70;99.90;;;22.18;100.00;100851.31;5186543;28;20044;-71
2023/06/21 04:42:54;;;;;;;4.35;2.78;;;21.70;99.90;;;22.20;100.00;100849.50;5187257;28;20061;-71
2023/06/21 04:45:27;;;;;;;4.38;2.47;;;21.70;99.90;;;22.22;100.00;100846.81;5153642;28;20056;-71
2023/06/21 04:47:59;;;;;;;4.72;2.65;;;21.70;99.90;;;22.24;100.00;100857.44;5186983;28;20046;-72
2023/06/21 04:50:33;;;;;;;4.00;2.72;;;21.70;99.90;;;22.26;100.00;100858.28;5185971;28;20304;-72
2023/06/21 04:53:05;;;;;;;4.82;3.22;;;21.80;99.90;;;22.31;100.00;100859.13;5184892;28;20072;-71
2023/06/21 04:55:42;;;;;;;4.25;3.10;;;21.80;99.90;;;22.35;100.00;100856.38;5152767;28;20053;-71
2023/06/21 04:58:15;;;;;;;4.65;2.80;;;21.90;99.90;;;22.43;100.00;100864.25;5222448;22;20049;-82
2023/06/21 05:00:47;;;;;;;7.03;3.20;;;22.00;99.90;;;22.49;100.00;100869.50;5205861;28;20053;-81
2023/06/21 05:03:19;;;;;;;5.78;3.13;;;22.00;99.90;;;22.55;100.00;100869.41;5198956;28;20052;-83
2023/06/21 05:05:53;;;;;;;5.75;3.47;;;22.10;99.90;;;22.52;100.00;100865.94;5214994;28;20049;-81
2023/06/21 05:08:25;;;;;;;5.43;3.17;;;22.10;99.90;;;22.54;100.00;100869.44;5205532;28;20534;-83
2023/06/21 05:10:57;;;;;;;6.10;3.25;;;22.10;99.90;;;22.66;100.00;100877.25;5202358;28;20042;-80
2023/06/21 05:13:30;;;;;;;7.78;4.07;;;22.20;99.90;;;22.85;100.00;100877.88;5184570;28;20045;-83
2023/06/21 05:16:02;;;;;;;6.15;3.25;;;22.30;99.90;;;23.05;100.00;100874.97;5201515;28;20044;-79
2023/06/21 05:18:35;;;;;;;6.60;3.20;;;22.50;99.90;;;23.14;100.00;100885.44;5193813;28;20052;-81
2023/06/21 05:21:08;;;;;;;5.68;3.40;;;22.60;99.90;;;23.19;100.00;100884.47;5190459;28;20073;-82
2023/06/21 05:23:40;;;;;;;4.65;3.15;;;22.70;99.90;;;23.18;100.00;100887.16;5181346;28;20038;-82
2023/06/21 05:26:12;;;;;;;4.30;2.97;;;22.70;99.90;;;23.17;100.00;100893.38;5208223;28;20402;-81
2023/06/21 05:28:45;;;;;;;5.40;3.05;;;22.70;99.90;;;23.22;100.00;100903.06;5197751;28;20401;-82
2023/06/21 05:31:17;;;;;;;5.28;3.10;;;22.80;99.90;;;23.26;100.00;100901.19;5193542;28;20046;-82
2023/06/21 05:33:49;;;;;;;5.40;3.30;;;22.80;99.90;;;23.25;100.00;100902.13;5192297;28;20105;-80
2023/06/21 05:36:22;;;;;;;7.22;3.60;;;22.80;99.90;;;23.24;100.00;100903.03;5199635;28;20059;-81
2023/06/21 05:38:54;;;;;;;5.05;3.38;;;22.80;99.90;;;23.19;100.00;100907.53;5190315;28;20052;-82
2023/06/21 05:41:27;;;;;;;5.15;3.13;;;22.80;99.90;;;23.18;100.00;100908.44;5180815;28;20053;-82
2023/06/21 05:43:59;;;;;;;5.22;3.20;;;22.70;99.90;;;23.26;100.00;100911.84;5183667;28;20077;-80
2023/06/21 05:46:31;;;;;;;5.90;3.00;;;22.80;99.90;;;23.53;100.00;100916.72;5188738;28;20056;-82
2023/06/21 05:49:03;;;;;;;5.43;3.67;;;23.00;99.90;;;23.80;100.00;100914.56;5197489;28;20066;-82
2023/06/21 05:51:37;;;;;;;5.70;3.85;;;23.10;99.90;;;23.99;100.00;100921.25;5205507;28;20065;-81
2023/06/21 05:54:09;;;;;;;5.40;3.22;;;23.30;99.90;;;24.04;100.00;100924.72;5186503;28;20143;-83
2023/06/21 05:56:41;;;;;;;6.03;3.70;;;23.40;99.90;;;24.08;100.00;100929.09;5178944;28;20054;-82
2023/06/21 05:59:14;;;;;;;7.38;3.70;;;23.50;99.90;;;24.13;99.89;100928.16;5206993;28;20143;-82
2023/06/21 06:01:46;;;;;;;6.10;3.63;;;23.50;99.90;;;24.20;99.57;100924.47;5198205;28;20522;-82
2023/06/21 06:04:18;;;;;;;5.53;3.83;;;23.60;99.90;;;24.28;99.14;100927.84;5198512;28;20038;-80
2023/06/21 06:06:51;;;;;;;8.23;3.63;;;23.70;99.90;;;24.39;98.23;100930.31;5186483;28;20053;-80
2023/06/21 06:09:24;;;;;;;6.70;4.10;;;23.80;99.90;;;24.52;97.31;100935.38;5185860;28;20052;-80
2023/06/21 06:11:56;;;;;;;7.60;4.18;;;23.90;99.90;;;24.61;96.33;100932.50;5192653;28;20070;-80
2023/06/21 06:14:28;;;;;;;7.55;3.90;;;24.00;99.90;;;24.72;95.98;100934.09;5183397;28;20081;-79
2023/06/21 06:17:01;;;;;;;10.38;4.18;;;24.10;99.90;;;24.91;95.64;100938.13;5187245;28;20049;-80
2023/06/21 06:19:33;;;;;;;6.00;4.15;;;24.20;99.90;;;25.16;94.67;100931.31;5190389;28;20048;-77
2023/06/21 06:22:06;;;;;;;6.45;3.88;;;24.40;99.90;;;25.48;92.97;100937.69;5177198;28;20042;-77
2023/06/21 06:24:38;;;;;;;6.18;4.00;;;24.70;99.90;;;25.67;91.43;100947.00;5165974;28;20049;-79
2023/06/21 06:27:10;;;;;;;5.65;3.85;;;24.90;99.90;;;25.72;90.12;100952.22;5179082;28;20038;-79
2023/06/21 06:29:42;;;;;;;7.18;4.03;;;25.00;99.90;;;25.71;89.51;100948.69;5178138;28;20508;-78
2023/06/21 06:32:14;;;;;;;6.10;3.65;;;25.00;99.90;;;25.78;90.09;100956.56;5182042;28;20508;-79
2023/06/21 06:34:46;;;;;;;6.43;3.55;;;25.00;99.90;;;25.98;89.15;100951.59;5183992;28;20045;-79
2023/06/21 06:37:21;;;;;;;6.05;3.70;;;25.20;99.90;;;26.15;88.67;100952.03;5177002;28;20057;-77
2023/06/21 06:39:53;;;;;;;5.63;3.72;;;25.30;99.90;;;26.40;88.30;100962.03;5159785;28;20054;-77
2023/06/21 06:42:25;;;;;;;6.35;3.97;;;25.50;99.90;;;26.64;87.02;100961.34;5168469;28;20447;-79
2023/06/21 06:44:57;;;;;;;6.78;4.20;;;25.70;99.70;;;26.87;85.10;100966.03;5166348;28;20042;-79
2023/06/21 06:47:30;;;;;;;5.15;3.67;;;26.00;99.10;;;27.03;84.68;100969.13;5161004;28;20042;-79
2023/06/21 06:50:04;;;;;;;5.97;3.83;;;26.10;98.80;;;27.22;83.94;100966.78;5168944;28;20057;-79
2023/06/21 06:52:37;;;;;;;5.90;3.65;;;26.20;98.60;;;27.38;83.77;100964.47;5185462;28;20050;-78
2023/06/21 06:55:10;;;;;;;7.25;3.72;;;26.40;98.40;;;27.48;81.98;100977.53;5170630;28;20065;-79
2023/06/21 06:57:42;;;;;;;7.88;4.30;;;26.60;97.90;;;27.56;81.72;100980.81;5176278;28;20049;-78
2023/06/21 07:00:15;;;;;;;5.40;3.63;;;26.60;97.60;;;27.60;81.46;100986.97;5168406;28;20057;-80
2023/06/21 07:02:47;;;;;;;7.05;3.90;;;26.70;97.40;;;27.60;81.87;100981.63;5175022;28;20046;-78
2023/06/21 07:05:19;;;;;;;5.88;4.05;;;26.70;97.40;;;27.61;81.79;100988.72;5165162;28;20496;-78
2023/06/21 07:07:54;;;;;;;8.65;4.07;;;26.70;97.30;;;27.64;81.80;100983.25;5157532;28;20053;-78
2023/06/21 07:10:26;;;;;;;5.22;4.05;;;26.70;97.30;;;27.62;81.52;100977.09;5181792;28;20057;-78
2023/06/21 07:13:02;;;;;;;5.15;3.92;;;26.70;97.10;;;27.71;81.24;100979.50;5185359;28;20050;-79
2023/06/21 07:15:34;;;;;;;5.40;3.80;;;26.80;97.00;;;27.82;80.90;100981.81;5189981;28;20512;-79
2023/06/21 07:18:07;;;;;;;5.25;3.60;;;26.80;96.90;;;27.89;80.19;100983.34;5190251;28;20048;-79
2023/06/21 07:20:39;;;;;;;6.32;3.80;;;26.90;96.60;;;27.96;79.86;100981.34;5195038;28;20046;-80
2023/06/21 07:23:12;;;;;;;7.03;4.32;;;27.00;96.40;;;28.07;79.75;100987.22;5189083;28;20054;-81
2023/06/21 07:25:44;;;;;;;7.30;3.97;;;27.10;96.40;;;28.21;78.62;100984.03;5188708;28;20432;-80
2023/06/21 07:28:16;;;;;;;5.80;3.97;;;27.20;96.00;;;28.33;78.27;100997.91;5188704;28;20030;-81
2023/06/21 07:30:48;;;;;;;6.13;4.03;;;27.30;95.80;;;28.43;78.08;100992.22;5171735;28;20050;-80
2023/06/21 07:33:21;;;;;;;6.07;3.53;;;27.40;95.70;;;28.39;78.13;100994.16;5171650;28;20053;-79
2023/06/21 07:35:53;;;;;;;6.22;3.50;;;27.40;95.60;;;28.50;77.58;101001.81;5188741;28;20045;-79
2023/06/21 07:38:27;;;;;;;5.53;3.70;;;27.50;95.50;;;28.59;77.24;101001.47;5188569;28;20049;-80
2023/06/21 07:40:59;;;;;;;5.88;3.78;;;27.50;95.30;;;28.64;77.54;100997.69;5172919;28;20512;-78
2023/06/21 07:43:31;;;;;;;5.85;4.00;;;27.60;95.30;;;28.62;76.85;100996.84;5190818;28;20050;-79
2023/06/21 07:46:03;;;;;;;6.45;3.67;;;27.60;95.00;;;28.66;76.58;100992.25;5189766;28;20052;-80
2023/06/21 07:48:35;;;;;;;6.55;4.03;;;27.60;95.00;;;28.66;76.03;100989.56;5192021;28;20041;-80
2023/06/21 07:51:07;;;;;;;7.45;3.70;;;27.60;94.70;;;28.67;77.17;100994.00;5175732;28;20046;-81
2023/06/21 07:53:40;;;;;;;5.43;3.63;;;27.60;95.20;;;28.88;76.73;100992.31;5180194;28;20046;-79
2023/06/21 07:56:16;;;;;;;6.38;3.63;;;27.70;95.00;;;29.03;76.20;100985.53;5186628;28;20065;-79
2023/06/21 07:58:48;;;;;;;5.43;3.53;;;27.80;94.80;;;29.28;75.65;100986.34;5188081;28;20046;-78
2023/06/21 08:01:20;;;;;;;6.60;3.83;;;28.00;94.70;;;29.61;74.27;100989.50;5188234;28;20046;-79
2023/06/21 08:03:52;;;;;;;4.97;3.67;;;28.30;94.20;;;29.85;72.39;100992.94;5191682;28;20582;-79
2023/06/21 08:06:24;;;;;;;5.90;3.72;;;28.50;93.60;;;30.11;72.13;101004.44;5189359;28;20531;-78
2023/06/21 08:08:57;;;;;;;5.45;3.40;;;28.60;93.40;;;30.48;69.45;100996.50;5171985;28;20046;-79
2023/06/21 08:11:29;;;;;;;5.20;3.47;;;28.90;92.60;;;30.83;68.15;101004.81;5193201;28;20042;-78
2023/06/21 08:14:02;;;;;;;4.38;3.35;;;29.10;91.90;;;31.23;66.58;100992.16;5192668;28;20053;-80
2023/06/21 08:16:34;;;;;;;4.65;2.88;;;29.40;91.50;;;31.73;64.72;100994.25;5176750;28;20053;-77
2023/06/21 08:19:07;;;;;;;5.47;3.45;;;29.70;90.70;;;31.99;63.63;100992.97;5190478;28;20515;-79
2023/06/21 08:21:39;;;;;;;4.32;3.33;;;29.80;90.20;;;32.31;62.82;100984.06;5171674;28;20583;-79
2023/06/21 08:24:13;;;;;;;4.75;3.10;;;30.00;89.50;;;32.80;62.38;100992.25;5189250;28;20053;-78
2023/06/21 08:26:45;;;;;;;5.53;3.38;;;30.30;89.50;;;33.35;60.56;100996.44;5189374;28;20070;-79
2023/06/21 08:29:17;;;;;;;4.20;3.20;;;30.60;88.00;;;33.30;59.60;100995.81;5187993;28;20049;-78
2023/06/21 08:31:49;;;;;;;6.07;3.28;;;30.70;86.60;;;33.30;59.63;100999.38;5187279;28;20034;-77
2023/06/21 08:34:21;;;;;;;3.90;3.05;;;30.70;85.80;;;33.81;58.64;100989.25;5187379;28;20089;-78
2023/06/21 08:36:53;;;;;;;4.72;2.70;;;30.90;85.30;;;34.75;55.78;100989.84;5191017;28;20045;-80
2023/06/21 08:39:26;;;;;;;4.68;3.08;;;31.20;83.20;;;36.02;53.53;100992.41;5177309;28;20057;-81
2023/06/21 08:41:58;;;;;;;3.63;2.70;;;31.90;81.90;;;37.28;49.75;100987.94;5182609;28;20051;-79
2023/06/21 08:44:32;;;;;;;3.20;2.70;;;32.70;78.00;;;38.34;47.65;100994.38;5171883;28;20062;-76
2023/06/21 08:47:07;;;;;;;3.75;2.50;;;33.60;74.60;;;39.08;46.44;100992.97;5187504;28;20045;-79
2023/06/21 08:49:41;;;;;;;3.60;2.80;;;34.40;72.10;;;39.49;45.56;100999.59;5188994;28;20084;-77
2023/06/21 08:52:19;;;;;;;3.55;2.85;;;35.00;69.50;;;39.34;44.59;100996.28;5188083;28;20067;-77
2023/06/21 08:55:01;;;;;;;4.55;3.10;;;35.30;66.90;;;39.23;44.44;100998.16;5180164;28;20060;-78
2023/06/21 08:57:40;;;;;;;3.60;3.00;;;35.40;65.50;;;38.86;45.11;100995.69;5176222;28;20047;-78
2023/06/21 09:00:18;;;;;;;4.60;2.97;;;35.30;65.10;;;38.70;45.63;101000.63;5189336;28;20050;-78
2023/06/21 09:03:00;;;;;;;4.45;3.13;;;35.10;65.30;;;38.27;45.56;100999.44;5160499;28;20057;-78
2023/06/21 09:05:41;;;;;;;3.90;3.28;;;35.00;64.60;;;38.40;45.40;101002.06;5167430;28;20046;-79
2023/06/21 09:08:15;;;;;;;4.57;3.08;;;34.90;64.50;;;38.79;45.43;100986.28;5166729;28;20408;-79
2023/06/21 09:10:50;;;;;;;4.10;2.90;;;35.10;64.70;;;38.79;44.99;100986.28;5164273;28;20394;-79
2023/06/21 09:13:27;;;;;;;4.20;2.95;;;35.20;63.60;;;39.15;44.41;100981.56;5162334;28;20063;-79
2023/06/21 09:16:03;;;;;;;4.68;3.40;;;35.50;63.10;;;39.48;43.96;100988.81;5186084;28;20089;-79
2023/06/21 09:18:39;;;;;;;4.10;2.97;;;35.70;62.50;;;39.73;43.64;100990.38;5202856;28;20069;-79
2023/06/21 09:21:13;;;;;;;3.40;3.05;;;36.00;62.20;;;38.74;44.09;100999.44;5176126;28;20049;-80
2023/06/21 09:23:45;;;;;;;4.03;3.33;;;35.70;61.30;;;37.03;46.54;100988.84;5179005;28;20050;-79
2023/06/21 09:26:18;;;;;;;4.20;3.30;;;34.80;62.00;;;35.61;49.51;100996.94;5179043;28;20049;-80
2023/06/21 09:28:50;;;;;;;4.10;3.30;;;33.80;63.70;;;34.20;51.92;100999.53;5179758;28;20046;-80
2023/06/21 09:31:22;;;;;;;5.07;3.70;;;32.80;65.20;;;33.06;54.41;100992.66;5197019;28;20068;-79
2023/06/21 09:33:56;;;;;;;5.18;3.67;;;31.90;67.00;;;32.14;57.03;100998.41;5183137;28;20053;-78
2023/06/21 09:36:28;;;;;;;;;;;31.10;69.20;;;31.40;59.11;101005.75;5183278;28;20042;-78
2023/06/21 09:39:08;;;;;;;5.85;3.70;;;30.40;70.90;;;31.24;61.04;100993.97;5183120;28;19921;-78
2023/06/21 09:41:42;;;;;;;5.65;3.55;;;30.10;72.80;;;31.41;61.88;100996.72;5183655;28;20108;-79
2023/06/21 09:44:14;;;;;;;4.57;3.70;;;30.10;73.80;;;31.67;61.02;100992.72;5186057;28;20045;-78
2023/06/21 09:49:28;;;;;;;5.15;3.58;;;30.30;73.80;;;31.43;60.39;101000.22;5117475;27;20431;-59
2023/06/21 09:52:00;;;;;;;4.85;3.35;;;30.30;73.00;;;31.21;60.81;101010.22;5171861;28;20050;-60
2023/06/21 09:54:42;;;;;;;4.10;2.90;;;30.10;73.00;;;30.99;60.14;101013.94;5173718;28;20070;-61
2023/06/21 09:57:14;;;;;;;4.60;3.17;;;29.90;72.50;;;30.81;60.66;101022.88;5179112;28;20477;-60
2023/06/21 09:59:50;;;;;;;4.65;3.20;;;29.80;72.80;;;30.61;61.54;101012.09;5175047;28;20492;-59
2023/06/21 10:02:23;;;;;;;4.30;3.00;;;29.60;73.30;;;30.42;62.00;101026.38;5175049;28;20502;-61
2023/06/21 10:04:56;;;;;;;5.32;3.38;;;29.40;73.80;;;30.27;62.60;101016.28;5179578;28;20049;-60
2023/06/21 10:07:28;;;;;;;4.90;2.92;;;29.30;74.50;;;30.32;62.99;101016.06;5178972;28;20487;-61
2023/06/21 10:10:07;;;;;;;4.68;3.17;;;29.30;75.00;;;30.60;63.25;101005.84;5178566;28;20046;-61
2023/06/21 10:12:49;;;;;;;4.57;2.67;;;29.50;75.70;;;31.07;62.46;101014.44;5177874;28;20431;-61
2023/06/21 10:15:22;;;;;;;4.63;3.20;;;29.80;75.70;;;31.45;59.43;101014.47;5178805;28;20495;-61
2023/06/21 10:17:56;;;;;;;5.90;3.30;;;30.10;73.40;;;31.72;58.90;101017.63;5179319;28;20568;-61
2023/06/21 10:20:30;;;;;;;4.53;3.28;;;30.40;72.80;;;31.99;58.49;101015.41;5178042;28;20411;-61
2023/06/21 10:23:05;;;;;;;4.72;3.20;;;30.60;72.20;;;32.21;58.39;101019.69;5168967;28;20058;-60
2023/06/21 10:25:39;;;;;;;4.10;2.80;;;30.90;72.00;;;32.41;56.96;101027.66;5161690;28;20153;-61
2023/06/21 10:28:15;;;;;;;4.57;3.03;;;31.10;71.10;;;32.39;56.32;101014.22;5177632;28;20129;-61
2023/06/21 10:30:49;;;;;;;4.38;3.10;;;31.20;70.10;;;32.39;56.30;101024.16;5175792;28;20046;-62
2023/06/21 10:33:23;;;;;;;4.65;2.80;;;31.20;69.90;;;32.54;55.83;101017.06;5177212;28;20053;-66
2023/06/21 10:36:01;;;;;;;4.00;2.88;;;31.30;69.70;;;32.59;56.16;101015.88;5178323;28;20052;-66
2023/06/21 10:38:39;;;;;;;4.53;2.88;;;31.40;70.40;;;32.80;56.18;101018.34;5151506;28;20054;-67